Time;durP1;ratioP1;P1;durP2;ratioP2;P2;SDS_P1;SDS_P2;PMS_P1;PMS_P2;Temp;Humidity;BMP_temperature;BMP_pressure;BME280_temperature;BME280_humidity;BME280_pressure;Samples;Min_cycle;Max_cycle;Signal;HPM_P1;HPM_P2
2022/10/05 00:01:34;;;;;;;6.05;4.45;;;;;;;10.65;75.85;99181.63;5010485;28;20055;-81
2022/10/05 00:04:17;;;;;;;5.55;4.22;;;;;;;10.60;76.09;99159.34;5025856;28;20044;-82
2022/10/05 00:06:46;;;;;;;11.75;4.18;;;;;;;10.69;76.18;99180.09;5040958;28;20504;-81
2022/10/05 00:09:19;;;;;;;7.63;4.88;;;;;;;10.42;76.65;99189.72;5009249;28;20061;-81
2022/10/05 00:11:45;;;;;;;6.60;3.35;;;;;;;10.41;77.02;99178.25;5025656;28;20025;-81
2022/10/05 00:14:20;;;;;;;5.75;3.88;;;;;;;10.50;76.45;99182.16;5049729;28;20029;-81
2022/10/05 00:16:46;;;;;;;5.43;3.92;;;;;;;10.57;76.33;99180.13;5025590;28;26238;-82
2022/10/05 00:19:19;;;;;;;6.10;4.47;;;;;;;10.36;76.49;99138.13;5024238;28;20029;-82
2022/10/05 00:21:45;;;;;;;8.07;4.47;;;;;;;10.32;76.63;99150.34;5027117;28;20488;-82
2022/10/05 00:24:11;;;;;;;5.38;4.28;;;;;;;10.27;76.28;99136.91;5024566;28;20025;-81
2022/10/05 00:26:37;;;;;;;8.32;4.20;;;;;;;10.57;75.60;99172.13;5005830;28;20036;-81
2022/10/05 00:29:17;;;;;;;8.63;4.55;;;;;;;10.45;75.96;99157.22;5032656;28;20025;-81
2022/10/05 00:31:42;;;;;;;9.13;5.93;;;;;;;10.39;76.25;99168.88;5027472;28;20116;-82
2022/10/05 00:34:08;;;;;;;8.98;4.45;;;;;;;10.59;75.81;99173.75;5012228;28;20028;-82
2022/10/05 00:36:33;;;;;;;7.13;4.47;;;;;;;10.59;75.72;99182.59;5040905;28;20042;-82
2022/10/05 00:39:00;;;;;;;6.40;5.60;;;;;;;10.51;75.77;99183.78;5032657;28;20029;-81
2022/10/05 00:41:51;;;;;;;5.00;4.30;;;;;;;10.46;76.33;99182.88;5029152;28;20087;-81
2022/10/05 00:44:33;;;;;;;7.15;4.63;;;;;;;10.39;76.15;99182.22;5034066;28;20129;-81
2022/10/05 00:47:06;;;;;;;7.38;4.32;;;;;;;10.38;75.97;99167.22;5047981;28;20037;-81
2022/10/05 00:50:05;;;;;;;4.63;3.83;;;;;;;10.50;76.33;99189.34;5023234;28;21626;-81
2022/10/05 00:52:49;;;;;;;5.97;4.10;;;;;;;10.41;76.48;99188.94;5047260;28;20036;-82
2022/10/05 00:55:26;;;;;;;7.63;4.72;;;;;;;10.42;76.59;99193.22;5029792;28;20048;-81
2022/10/05 00:57:51;;;;;;;6.72;4.60;;;;;;;10.51;76.43;99185.63;5029775;28;20033;-82
2022/10/05 01:00:22;;;;;;;3.72;3.42;;;;;;;10.31;76.55;99166.59;5046823;28;20035;-81
2022/10/05 01:03:01;;;;;;;6.25;4.30;;;;;;;10.47;76.26;99174.63;5041349;28;20021;-81
2022/10/05 01:06:02;;;;;;;6.85;3.90;;;;;;;10.44;76.20;99171.63;5048997;28;20076;-81
2022/10/05 01:08:33;;;;;;;6.22;3.72;;;;;;;10.18;77.39;99175.66;5011824;28;20047;-81
2022/10/05 01:11:19;;;;;;;5.85;3.75;;;;;;;10.12;77.07;99163.28;5047446;28;20535;-81
2022/10/05 01:13:53;;;;;;;4.60;3.60;;;;;;;10.31;76.66;99158.59;5049252;28;20024;-81
2022/10/05 01:16:43;;;;;;;4.70;3.70;;;;;;;10.38;75.92;99168.06;5046437;28;20071;-81
2022/10/05 01:19:14;;;;;;;6.28;3.63;;;;;;;10.40;75.80;99163.28;5048303;28;20122;-81
2022/10/05 01:22:22;;;;;;;5.28;3.85;;;;;;;10.40;75.71;99165.13;5046981;28;20033;-82
2022/10/05 01:24:52;;;;;;;4.03;3.60;;;;;;;10.32;76.04;99161.00;4986218;28;20037;-82
2022/10/05 01:27:28;;;;;;;5.03;3.55;;;;;;;10.28;76.19;99133.19;5049871;28;20490;-82
2022/10/05 01:30:12;;;;;;;5.25;3.78;;;;;;;10.32;76.16;99147.69;5025237;28;20028;-82
2022/10/05 01:33:00;;;;;;;4.40;3.88;;;;;;;10.22;76.11;99114.66;5027603;28;20082;-82
2022/10/05 01:35:46;;;;;;;3.30;2.95;;;;;;;10.28;76.66;99135.03;5045615;28;20411;-82
2022/10/05 01:38:34;;;;;;;8.38;4.20;;;;;;;10.23;76.69;99134.94;5027384;28;20396;-82
2022/10/05 01:41:28;;;;;;;4.78;3.72;;;;;;;10.18;77.52;99134.84;5032764;28;20042;-82
2022/10/05 01:43:57;;;;;;;6.57;4.10;;;;;;;10.21;76.69;99113.03;5029078;28;20051;-82
2022/10/05 01:46:49;;;;;;;6.10;4.00;;;;;;;10.06;76.78;99104.72;5043485;28;22030;-82
2022/10/05 01:49:36;;;;;;;6.85;4.45;;;;;;;10.18;76.90;99126.84;5035489;28;20043;-82
2022/10/05 01:52:40;;;;;;;7.97;4.32;;;;;;;10.39;76.44;99129.66;5040668;28;20036;-82
2022/10/05 01:55:24;;;;;;;7.75;4.80;;;;;;;10.08;78.65;99135.44;5039830;28;20043;-82
2022/10/05 01:58:15;;;;;;;7.00;4.13;;;;;;;10.12;77.36;99120.63;5050876;28;20024;-81
2022/10/05 02:00:59;;;;;;;5.47;4.22;;;;;;;10.21;76.70;99113.84;5026643;28;20037;-82
2022/10/05 02:03:29;;;;;;;7.38;3.97;;;;;;;9.82;77.87;99109.34;5048375;28;20032;-82
2022/10/05 02:06:11;;;;;;;7.25;4.07;;;;;;;9.80;78.27;99104.25;5039682;28;20513;-82
2022/10/05 02:08:46;;;;;;;8.50;4.68;;;;;;;8.72;83.58;99121.00;5026468;28;20484;-82
2022/10/05 02:11:14;;;;;;;8.23;5.00;;;;;;;8.28;85.70;99122.31;5047759;28;20753;-81
2022/10/05 02:13:56;;;;;;;12.38;6.60;;;;;;;7.96;88.53;99155.44;5014448;28;20393;-81
2022/10/05 02:16:35;;;;;;;11.98;5.88;;;;;;;8.42;86.13;99145.03;5031364;28;20112;-82
2022/10/05 02:19:28;;;;;;;6.63;4.95;;;;;;;8.69;84.62;99156.88;5043232;28;20395;-81
2022/10/05 02:22:07;;;;;;;9.57;6.25;;;;;;;8.41;84.94;99132.75;5029998;28;20037;-82
2022/10/05 02:24:48;;;;;;;5.40;4.00;;;;;;;9.75;79.71;99153.97;5030844;28;20384;-82
2022/10/05 02:27:20;;;;;;;4.60;4.05;;;;;;;9.91;78.24;99139.09;5050045;28;20032;-82
2022/10/05 02:29:49;;;;;;;10.55;4.50;;;;;;;9.61;78.90;99124.09;5026678;28;20477;-82
2022/10/05 02:32:21;;;;;;;4.90;3.60;;;;;;;10.04;77.67;99128.16;5027826;28;20961;-82
2022/10/05 02:34:46;;;;;;;4.70;3.92;;;;;;;9.93;77.75;99131.69;5037640;28;20025;-82
2022/10/05 02:37:27;;;;;;;8.85;3.85;;;;;;;10.18;76.75;99143.66;5009628;28;20503;-82
2022/10/05 02:39:59;;;;;;;5.40;4.18;;;;;;;10.22;76.50;99141.34;5045864;28;20033;-82
2022/10/05 02:42:55;;;;;;;4.80;4.32;;;;;;;9.60;78.17;99124.34;5027003;28;20769;-82
2022/10/05 02:45:32;;;;;;;4.45;4.05;;;;;;;9.88;77.28;99140.38;5044830;28;20029;-82
2022/10/05 02:48:13;;;;;;;7.65;5.05;;;;;;;9.20;81.09;99131.44;5044297;28;20110;-82
2022/10/05 02:50:55;;;;;;;11.48;5.45;;;;;;;9.54;79.39;99133.28;5041481;28;20362;-82
2022/10/05 02:53:34;;;;;;;7.10;4.43;;;;;;;8.87;81.92;99121.38;5040078;28;20032;-82
2022/10/05 02:56:10;;;;;;;6.13;4.32;;;;;;;9.11;81.21;99125.66;5045740;28;20068;-82
2022/10/05 02:59:23;;;;;;;4.38;3.97;;;;;;;9.93;77.58;99105.84;5027347;28;20025;-82
2022/10/05 03:01:58;;;;;;;7.13;4.20;;;;;;;9.23;79.46;99072.41;4957846;28;20415;-82
2022/10/05 03:04:41;;;;;;;8.57;4.55;;;;;;;9.58;79.17;99097.94;5028133;28;20024;-82
2022/10/05 03:07:19;;;;;;;5.13;4.43;;;;;;;9.97;77.60;99085.63;5026818;28;20108;-82
2022/10/05 03:09:56;;;;;;;6.05;4.20;;;;;;;10.04;76.87;99075.63;5040301;28;20115;-82
2022/10/05 03:12:47;;;;;;;4.93;4.05;;;;;;;9.85;77.16;99066.19;5026441;28;20036;-82
2022/10/05 03:15:25;;;;;;;7.07;5.45;;;;;;;8.97;81.21;99090.50;5044008;28;20021;-81
2022/10/05 03:18:21;;;;;;;9.55;5.88;;;;;;;8.98;81.85;99062.81;5029180;28;20329;-82
2022/10/05 03:20:58;;;;;;;7.03;5.93;;;;;;;8.65;83.84;99078.56;5044709;28;20092;-82
2022/10/05 03:23:39;;;;;;;13.85;7.45;;;;;;;8.53;84.65;99080.41;5028167;28;20048;-81
2022/10/05 03:26:21;;;;;;;12.82;6.93;;;;;;;8.37;86.20;99093.53;5042928;28;20032;-82
2022/10/05 03:29:01;;;;;;;10.48;6.32;;;;;;;7.80;87.62;99065.72;5024751;28;20026;-82
2022/10/05 03:31:35;;;;;;;13.82;6.68;;;;;;;7.64;89.62;99075.13;5027399;28;20025;-81
2022/10/05 03:34:10;;;;;;;16.23;7.97;;;;;;;7.20;92.30;99070.13;5043023;28;21565;-82
2022/10/05 03:36:40;;;;;;;16.27;7.60;;;;;;;7.15;92.92;99072.63;5028436;28;20048;-81
2022/10/05 03:39:14;;;;;;;9.20;6.90;;;;;;;7.57;89.46;99045.19;5029116;28;20021;-81
2022/10/05 03:41:58;;;;;;;7.47;5.65;;;;;;;7.67;89.53;99072.00;5044377;28;20037;-81
2022/10/05 03:44:35;;;;;;;8.27;5.70;;;;;;;8.08;87.12;99055.31;5048506;28;20020;-82
2022/10/05 03:47:27;;;;;;;10.68;6.00;;;;;;;8.17;85.89;99075.19;5025839;28;20037;-82
2022/10/05 03:50:01;;;;;;;10.35;5.65;;;;;;;8.10;85.79;99064.66;5041333;28;20041;-82
2022/10/05 03:52:59;;;;;;;5.65;4.70;;;;;;;8.25;84.90;99056.28;5027289;28;20033;-82
2022/10/05 03:55:37;;;;;;;8.77;5.93;;;;;;;8.67;83.38;99054.41;4976374;28;20047;-82
2022/10/05 03:58:16;;;;;;;10.63;6.47;;;;;;;8.01;85.15;99036.81;5041437;28;20025;-82
2022/10/05 04:00:45;;;;;;;9.05;6.30;;;;;;;7.92;85.79;99058.59;5023844;28;20073;-79
2022/10/05 04:03:17;;;;;;;10.15;6.55;;;;;;;8.32;82.95;99049.03;5041932;28;20416;-80
2022/10/05 04:05:58;;;;;;;11.45;6.68;;;;;;;8.56;82.83;99055.19;5020982;28;20480;-80
2022/10/05 04:08:53;;;;;;;6.60;4.47;;;;;;;9.52;78.71;99056.22;5038695;28;20068;-80
2022/10/05 04:11:29;;;;;;;6.25;4.60;;;;;;;9.03;79.88;99031.00;5005004;28;20128;-80
2022/10/05 04:14:06;;;;;;;8.13;4.30;;;;;;;9.30;79.95;99054.47;5040943;28;20473;-80
2022/10/05 04:16:43;;;;;;;6.68;5.40;;;;;;;9.21;79.50;99040.69;5038306;28;20025;-80
2022/10/05 04:19:09;;;;;;;6.82;4.70;;;;;;;9.45;78.34;99052.09;5027796;28;20476;-80
2022/10/05 04:21:45;;;;;;;10.23;4.85;;;;;;;9.24;78.60;99039.41;5046584;28;20029;-80
2022/10/05 04:24:17;;;;;;;10.48;5.05;;;;;;;9.68;77.80;99047.50;5029716;28;20051;-80
2022/10/05 04:26:56;;;;;;;5.88;4.53;;;;;;;9.81;76.79;99049.06;5023164;28;20029;-80
2022/10/05 04:29:40;;;;;;;8.02;5.22;;;;;;;9.48;77.57;99041.78;5044895;28;20029;-80
2022/10/05 04:32:05;;;;;;;7.03;3.75;;;;;;;9.77;77.11;99047.94;5048708;28;20083;-80
2022/10/05 04:34:59;;;;;;;12.65;6.85;;;;;;;9.29;79.05;99042.16;5031981;28;20033;-79
2022/10/05 04:37:56;;;;;;;7.72;4.82;;;;;;;9.67;77.49;99027.25;5045336;28;20028;-81
2022/10/05 04:40:37;;;;;;;9.73;5.88;;;;;;;9.57;77.28;99015.56;5004816;28;20503;-81
2022/10/05 04:43:16;;;;;;;12.18;7.07;;;;;;;8.99;80.53;99035.19;5050465;28;20029;-81
2022/10/05 04:46:04;;;;;;;13.82;5.75;;;;;;;9.46;78.80;99041.19;5048871;28;20033;-81
2022/10/05 04:48:39;;;;;;;8.75;7.13;;;;;;;8.83;81.94;99029.72;5034323;28;20727;-81
2022/10/05 04:51:23;;;;;;;7.90;4.78;;;;;;;8.81;82.13;99016.66;5040491;28;20021;-81
2022/10/05 04:54:12;;;;;;;11.05;8.35;;;;;;;8.32;85.43;99034.94;5021626;28;20039;-80
2022/10/05 04:56:48;;;;;;;9.45;5.75;;;;;;;8.74;82.67;99036.44;5040856;28;20032;-81
2022/10/05 04:59:19;;;;;;;10.15;6.88;;;;;;;8.50;84.57;99029.50;5039032;28;20029;-81
2022/10/05 05:02:04;;;;;;;11.27;6.85;;;;;;;9.04;80.77;99034.47;5021800;28;20153;-81
2022/10/05 05:05:00;;;;;;;10.47;6.60;;;;;;;9.01;81.52;99026.94;5039008;28;20153;-81
2022/10/05 05:07:38;;;;;;;10.80;6.05;;;;;;;9.44;78.42;99023.81;5042015;28;20281;-81
2022/10/05 05:10:50;;;;;;;7.53;5.43;;;;;;;8.81;81.11;98982.06;5042391;28;20037;-81
2022/10/05 05:13:21;;;;;;;8.45;5.85;;;;;;;8.56;82.56;99031.25;5046064;28;20479;-81
2022/10/05 05:16:07;;;;;;;19.42;9.95;;;;;;;8.39;83.41;99036.44;5021885;28;20496;-81
2022/10/05 05:19:17;;;;;;;9.25;5.72;;;;;;;8.83;82.12;99038.53;5042257;28;20025;-82
2022/10/05 05:22:03;;;;;;;19.20;9.52;;;;;;;8.03;85.56;99048.00;4952059;28;20126;-82
2022/10/05 05:24:42;;;;;;;18.13;9.63;;;;;;;8.17;84.78;99030.81;5033135;28;20025;-81
2022/10/05 05:27:13;;;;;;;8.52;5.93;;;;;;;8.79;81.78;99047.22;5042900;28;20036;-81
2022/10/05 05:30:03;;;;;;;9.32;6.93;;;;;;;8.90;80.20;99030.44;5023106;28;20510;-82
2022/10/05 05:33:10;;;;;;;11.60;6.28;;;;;;;9.15;79.64;99038.16;5023768;28;20020;-81
2022/10/05 05:35:41;;;;;;;7.18;5.82;;;;;;;9.65;78.34;99033.84;5028824;28;20041;-82
2022/10/05 05:38:27;;;;;;;7.30;4.85;;;;;;;9.77;77.04;99037.25;5047553;28;20021;-82
2022/10/05 05:41:07;;;;;;;17.67;9.63;;;;;;;8.39;83.91;99035.63;5026007;28;20020;-80
2022/10/05 05:44:00;;;;;;;9.18;5.80;;;;;;;8.99;81.33;99021.88;5049896;28;20472;-80
2022/10/05 05:46:32;;;;;;;7.47;5.70;;;;;;;9.25;78.73;99035.69;5046906;28;20025;-80
2022/10/05 05:48:57;;;;;;;6.03;5.05;;;;;;;9.39;78.68;99029.06;5043599;28;20029;-80
2022/10/05 05:51:29;;;;;;;8.25;5.10;;;;;;;9.67;77.57;99023.75;5019442;28;20044;-80
2022/10/05 05:54:25;;;;;;;10.30;5.05;;;;;;;9.81;76.71;99038.41;5044715;28;20176;-80
2022/10/05 05:57:03;;;;;;;8.75;6.03;;;;;;;9.85;77.44;99028.88;5039636;28;20039;-80
2022/10/05 05:59:46;;;;;;;16.67;7.50;;;;;;;9.33;78.64;99020.16;5034077;28;20025;-80
2022/10/05 06:02:18;;;;;;;15.05;8.05;;;;;;;9.23;79.44;99029.78;5065099;28;20090;-79
2022/10/05 06:04:50;;;;;;;6.95;5.57;;;;;;;9.52;78.37;99023.47;5033866;28;20025;-79
2022/10/05 06:07:20;;;;;;;10.05;5.13;;;;;;;9.53;79.13;99025.88;5031091;28;20445;-80
2022/10/05 06:10:25;;;;;;;11.20;5.50;;;;;;;9.60;78.77;99029.22;5032451;28;20032;-79
2022/10/05 06:12:54;;;;;;;10.48;6.25;;;;;;;9.25;79.21;99003.75;5048096;28;20067;-80
2022/10/05 06:15:37;;;;;;;8.57;5.63;;;;;;;9.81;77.90;99039.22;5029492;28;20029;-79
2022/10/05 06:18:12;;;;;;;8.00;5.25;;;;;;;9.84;77.29;99035.28;5055183;28;20037;-80
2022/10/05 06:20:49;;;;;;;6.72;5.38;;;;;;;9.85;77.48;99046.75;5017812;28;20064;-80
2022/10/05 06:23:24;;;;;;;8.55;5.00;;;;;;;9.62;77.85;99028.97;5030279;28;20056;-80
2022/10/05 06:26:12;;;;;;;7.85;5.13;;;;;;;9.63;78.45;99041.28;5029979;28;20057;-80
2022/10/05 06:28:37;;;;;;;13.93;8.77;;;;;;;9.36;80.31;99026.88;5036029;28;20036;-80
2022/10/05 06:31:22;;;;;;;7.70;5.40;;;;;;;9.79;78.11;99030.66;4998672;28;20029;-80
2022/10/05 06:33:51;;;;;;;5.55;5.00;;;;;;;9.77;78.59;99048.75;5043873;28;20049;-80
2022/10/05 06:36:19;;;;;;;12.45;6.10;;;;;;;9.97;78.36;99047.50;5022656;28;20028;-80
2022/10/05 06:38:55;;;;;;;6.70;5.55;;;;;;;9.77;79.05;99026.59;5052015;28;20032;-80
2022/10/05 06:41:22;;;;;;;10.18;6.05;;;;;;;9.97;78.33;99052.81;5053055;28;20111;-80
2022/10/05 06:43:56;;;;;;;6.38;5.50;;;;;;;9.80;79.24;99031.47;5030417;28;20029;-80
2022/10/05 06:46:54;;;;;;;10.20;6.40;;;;;;;9.84;79.25;99051.25;5036514;28;20028;-80
2022/10/05 06:49:28;;;;;;;14.52;6.10;;;;;;;9.76;80.44;99052.44;4978889;28;20086;-80
2022/10/05 06:52:27;;;;;;;8.02;5.78;;;;;;;9.85;81.53;99046.75;5045083;28;20076;-80
2022/10/05 06:55:07;;;;;;;8.50;5.65;;;;;;;9.82;80.96;99045.38;5046263;28;20028;-80
2022/10/05 06:58:01;;;;;;;15.43;8.75;;;;;;;9.72;82.67;99045.97;5054222;28;20024;-80
2022/10/05 07:00:35;;;;;;;7.13;6.03;;;;;;;9.68;82.90;99038.69;5030668;28;20032;-80
2022/10/05 07:03:20;;;;;;;16.67;7.45;;;;;;;9.56;82.12;99003.28;5031570;28;20049;-80
2022/10/05 07:06:04;;;;;;;15.50;9.63;;;;;;;9.72;84.48;99042.50;5019763;28;20521;-80
2022/10/05 07:09:01;;;;;;;9.93;7.07;;;;;;;9.90;81.69;99039.63;5019010;28;20029;-79
2022/10/05 07:11:52;;;;;;;9.13;5.65;;;;;;;9.91;82.40;99037.78;5024540;28;20384;-78
2022/10/05 07:15:05;;;;;;;13.43;9.63;;;;;;;9.88;83.42;99043.59;5026512;28;20040;-78
2022/10/05 07:17:52;;;;;;;12.05;6.78;;;;;;;10.00;81.79;99053.16;5007155;28;20825;-78
2022/10/05 07:20:56;;;;;;;14.68;6.75;;;;;;;9.96;83.75;99049.34;5027242;28;20081;-78
2022/10/05 07:23:51;;;;;;;13.55;8.98;;;;;;;10.13;83.70;99031.56;5006224;28;20037;-79
2022/10/05 07:26:19;;;;;;;12.50;8.02;;;;;;;10.15;83.18;99045.47;5044953;28;20040;-78
2022/10/05 07:29:06;;;;;;;19.13;11.13;;;;;;;10.12;85.80;99040.59;5030016;28;20196;-78
2022/10/05 07:31:40;;;;;;;16.05;11.05;;;;;;;10.11;84.18;99008.84;5049348;28;20399;-78
2022/10/05 07:34:12;;;;;;;15.57;10.65;;;;;;;10.22;85.63;99046.09;5026698;28;20025;-78
2022/10/05 07:39:57;;;;;;;15.32;10.70;;;;;;;10.28;86.35;99069.16;5047166;28;20405;-78
2022/10/05 07:42:36;;;;;;;19.70;12.32;;;;;;;10.25;86.12;99045.63;5044953;28;20071;-78
2022/10/05 07:45:07;;;;;;;19.98;13.48;;;;;;;10.29;86.61;99065.44;5031972;28;20141;-78
2022/10/05 07:47:48;;;;;;;19.83;10.85;;;;;;;10.18;85.99;99030.81;5031123;28;21029;-78
2022/10/05 07:50:20;;;;;;;18.00;12.05;;;;;;;10.40;86.04;99063.75;5032426;28;20025;-78
2022/10/05 07:53:18;;;;;;;18.13;12.05;;;;;;;10.38;86.53;99066.66;5042924;28;20037;-79
2022/10/05 07:55:48;;;;;;;18.85;12.15;;;;;;;10.31;87.36;99059.88;5041479;28;20052;-78
2022/10/05 07:58:49;;;;;;;19.05;13.07;;;;;;;10.47;86.73;99077.75;5041473;28;20100;-78
2022/10/05 08:01:23;;;;;;;17.83;11.75;;;;;;;10.53;88.83;99074.91;5040595;28;20045;-78
2022/10/05 08:03:56;;;;;;;18.95;11.52;;;;;;;10.47;88.33;99086.56;5047316;28;20043;-78
2022/10/05 08:06:42;;;;;;;15.75;11.27;;;;;;;10.57;86.01;99097.41;5032433;28;20048;-78
2022/10/05 08:09:23;;;;;;;;;;;;;;;10.52;86.24;99084.00;5033559;28;20029;-79
2022/10/05 08:12:03;;;;;;;15.57;11.45;;;;;;;10.53;86.65;99096.25;5046889;28;19966;-79
2022/10/05 08:15:04;;;;;;;19.83;13.13;;;;;;;10.54;88.98;99086.41;5049732;28;20043;-78
2022/10/05 08:17:30;;;;;;;15.48;11.05;;;;;;;10.63;86.23;99087.63;5050654;28;20024;-78
2022/10/05 08:20:22;;;;;;;12.15;9.38;;;;;;;10.68;86.03;99092.25;5030421;28;20033;-78
2022/10/05 08:23:14;;;;;;;15.45;11.15;;;;;;;10.64;86.57;99094.56;5033586;28;20017;-79
2022/10/05 08:26:09;;;;;;;15.68;10.10;;;;;;;10.70;86.03;99090.94;5047833;28;20041;-78
2022/10/05 08:29:05;;;;;;;15.23;10.35;;;;;;;10.77;86.54;99094.25;5031953;28;20033;-78
2022/10/05 08:31:37;;;;;;;16.40;11.93;;;;;;;10.60;86.76;99074.75;5035711;28;21055;-78
2022/10/05 08:34:23;;;;;;;22.70;12.65;;;;;;;10.85;85.82;99095.72;5030347;28;20029;-78
2022/10/05 08:37:03;;;;;;;15.50;10.63;;;;;;;10.89;85.96;99102.16;5030791;28;20033;-78
2022/10/05 08:39:46;;;;;;;17.00;12.23;;;;;;;10.85;85.61;99087.69;5032918;28;20102;-78
2022/10/05 08:42:38;;;;;;;16.48;10.85;;;;;;;11.05;84.82;99098.69;5026672;28;20037;-79
2022/10/05 08:45:20;;;;;;;15.95;10.88;;;;;;;10.86;85.93;99071.44;5011108;28;20523;-79
2022/10/05 08:48:15;;;;;;;16.58;12.35;;;;;;;11.10;85.87;99090.72;5033379;28;20028;-78
2022/10/05 08:51:17;;;;;;;14.65;9.70;;;;;;;11.02;84.57;99072.47;5003866;28;20531;-79
2022/10/05 08:54:21;;;;;;;14.95;10.27;;;;;;;11.24;84.69;99097.34;5026978;28;20689;-79
2022/10/05 08:57:31;;;;;;;16.33;10.52;;;;;;;11.31;84.50;99089.97;4993610;28;20036;-78
2022/10/05 09:00:10;;;;;;;16.23;10.52;;;;;;;11.43;84.44;99098.69;4947821;28;20487;-78
2022/10/05 09:03:12;;;;;;;16.67;10.55;;;;;;;11.45;83.94;99109.09;5041779;28;20045;-78
2022/10/05 09:06:06;;;;;;;16.55;11.05;;;;;;;11.48;84.52;99109.44;5043175;28;20028;-78
2022/10/05 09:09:09;;;;;;;17.70;12.27;;;;;;;11.56;83.94;99114.34;5038310;28;20747;-78
2022/10/05 09:11:38;;;;;;;15.25;11.02;;;;;;;11.58;83.41;99111.41;5032768;28;20025;-78
2022/10/05 09:14:37;;;;;;;16.30;10.55;;;;;;;11.54;83.08;99118.31;5014137;28;20037;-78
2022/10/05 09:17:09;;;;;;;13.52;10.77;;;;;;;11.46;83.44;99122.25;5030622;28;20071;-78
2022/10/05 09:20:03;;;;;;;17.92;11.00;;;;;;;11.28;83.78;99099.28;5047831;28;20029;-78
2022/10/05 09:22:53;;;;;;;15.60;10.10;;;;;;;11.46;83.21;99098.19;5029803;28;20461;-78
2022/10/05 09:25:34;;;;;;;15.32;11.43;;;;;;;11.54;83.72;99108.44;5041065;28;20032;-78
2022/10/05 09:28:23;;;;;;;15.77;10.77;;;;;;;11.63;83.55;99108.81;5030727;28;20036;-78
2022/10/05 09:31:10;;;;;;;13.55;10.32;;;;;;;11.67;82.68;99099.25;5045669;28;20028;-78
2022/10/05 09:33:57;;;;;;;12.93;9.73;;;;;;;11.76;82.91;99095.09;5043775;28;20428;-78
2022/10/05 09:36:37;;;;;;;14.55;9.07;;;;;;;11.80;82.36;99097.03;5026794;28;20067;-79
2022/10/05 09:39:28;;;;;;;12.98;10.00;;;;;;;11.69;83.00;99073.09;5028492;28;20385;-78
2022/10/05 09:42:12;;;;;;;13.38;9.43;;;;;;;11.78;83.38;99095.66;5028437;28;20029;-79
2022/10/05 09:45:12;;;;;;;14.38;9.98;;;;;;;11.81;84.08;99101.34;5046532;28;20037;-79
2022/10/05 09:48:07;;;;;;;17.05;10.85;;;;;;;11.84;84.14;99084.78;5008417;28;20128;-79
2022/10/05 09:50:47;;;;;;;15.38;9.27;;;;;;;12.07;83.85;99090.91;5060040;28;20099;-80
2022/10/05 09:53:28;;;;;;;13.63;9.48;;;;;;;12.14;82.62;99091.50;5039658;28;20020;-79
2022/10/05 09:56:12;;;;;;;11.70;9.15;;;;;;;12.11;83.29;99070.59;5035443;28;20392;-79
2022/10/05 09:58:38;;;;;;;13.60;9.93;;;;;;;12.23;81.88;99087.31;5047575;28;20017;-79
2022/10/05 10:01:40;;;;;;;17.60;10.60;;;;;;;12.27;81.79;99099.13;5052257;28;20029;-79
2022/10/05 10:04:17;;;;;;;11.68;8.98;;;;;;;12.34;81.64;99086.38;5050307;28;20125;-79
2022/10/05 10:07:19;;;;;;;15.73;9.60;;;;;;;12.49;82.54;99083.81;5059757;28;20016;-79
2022/10/05 10:10:18;;;;;;;14.77;10.18;;;;;;;12.48;82.63;99072.31;5046797;28;20021;-79
2022/10/05 10:12:59;;;;;;;13.73;9.00;;;;;;;12.47;81.08;99076.03;5034129;28;20420;-79
2022/10/05 10:15:39;;;;;;;11.60;8.85;;;;;;;12.54;81.11;99091.88;5048817;28;20103;-79
2022/10/05 10:18:19;;;;;;;14.65;8.95;;;;;;;12.66;81.22;99087.19;5040770;28;20033;-79
2022/10/05 10:21:08;;;;;;;12.63;8.82;;;;;;;12.67;81.02;99075.38;5043928;28;20024;-79
2022/10/05 10:23:33;;;;;;;12.23;8.93;;;;;;;12.89;82.21;99078.75;5039583;28;20094;-79
2022/10/05 10:26:23;;;;;;;11.07;8.55;;;;;;;12.95;80.77;99064.34;5048427;28;20029;-79
2022/10/05 10:29:06;;;;;;;12.13;7.13;;;;;;;12.91;81.09;99062.44;5062965;28;20024;-79
2022/10/05 10:32:00;;;;;;;13.73;9.02;;;;;;;12.97;80.61;99069.44;5057714;28;20032;-79
2022/10/05 10:34:48;;;;;;;9.50;7.65;;;;;;;13.00;80.51;99061.69;5065601;28;20078;-79
2022/10/05 10:37:36;;;;;;;11.88;7.25;;;;;;;12.99;80.43;99061.97;5033843;28;20029;-79
2022/10/05 10:40:33;;;;;;;11.30;7.45;;;;;;;13.11;79.98;99044.66;5036223;28;20059;-79
2022/10/05 10:43:21;;;;;;;8.85;6.68;;;;;;;13.30;79.92;99059.22;5051697;28;20025;-79
2022/10/05 10:46:05;;;;;;;11.45;8.05;;;;;;;13.21;79.63;99049.25;5052268;28;20029;-79
2022/10/05 10:48:56;;;;;;;8.55;6.72;;;;;;;13.45;79.67;99053.91;5056108;28;20063;-79
2022/10/05 10:51:43;;;;;;;9.80;6.88;;;;;;;13.35;79.13;99045.03;5051280;28;20025;-79
2022/10/05 10:55:03;;;;;;;8.23;6.55;;;;;;;13.46;78.62;99055.53;5048386;28;20041;-79
2022/10/05 10:58:03;;;;;;;13.93;7.10;;;;;;;13.48;78.77;99031.13;5048310;28;20024;-79
2022/10/05 11:00:38;;;;;;;8.10;6.53;;;;;;;13.62;78.75;99047.56;4976975;28;20049;-79
2022/10/05 11:03:33;;;;;;;7.80;6.78;;;;;;;13.70;78.11;99041.66;5033746;28;20021;-79
2022/10/05 11:06:30;;;;;;;6.95;6.15;;;;;;;13.75;78.22;99034.47;5031757;28;20040;-79
2022/10/05 11:09:15;;;;;;;9.88;7.55;;;;;;;13.74;77.94;99040.88;5050034;28;20365;-79
2022/10/05 11:11:50;;;;;;;8.60;6.55;;;;;;;13.75;78.00;99034.47;5049188;28;20040;-79
2022/10/05 11:14:58;;;;;;;9.90;6.70;;;;;;;13.89;77.42;99035.56;5049886;28;20400;-79
2022/10/05 11:17:45;;;;;;;8.60;6.72;;;;;;;13.84;77.51;99024.84;5026041;28;20043;-79
2022/10/05 11:20:20;;;;;;;8.60;5.95;;;;;;;13.89;77.28;99026.72;5054975;28;20075;-79
2022/10/05 11:23:08;;;;;;;8.35;5.80;;;;;;;13.83;77.29;99044.66;5059108;28;20028;-79
2022/10/05 11:25:48;;;;;;;8.20;5.28;;;;;;;13.80;77.62;99025.63;5033216;28;20031;-79
2022/10/05 11:28:56;;;;;;;7.63;6.00;;;;;;;13.68;77.72;99027.72;5035112;28;20464;-79
2022/10/05 11:31:44;;;;;;;6.53;5.90;;;;;;;13.62;77.58;99021.56;5039592;28;20122;-79
2022/10/05 11:34:33;;;;;;;7.03;5.72;;;;;;;13.68;77.98;99020.47;5013467;28;20497;-79
2022/10/05 11:37:04;;;;;;;8.07;5.65;;;;;;;13.64;77.59;99024.78;5049398;28;20048;-79
2022/10/05 11:39:52;;;;;;;8.27;6.18;;;;;;;13.53;77.92;99023.13;5042992;28;20048;-79
2022/10/05 11:42:45;;;;;;;7.43;5.47;;;;;;;13.63;77.69;99017.00;5053433;28;20591;-79
2022/10/05 11:45:26;;;;;;;8.68;5.40;;;;;;;13.66;78.21;99013.78;5026495;28;20059;-79
2022/10/05 11:48:19;;;;;;;6.43;5.30;;;;;;;13.78;77.88;99014.34;5058091;28;20025;-79
2022/10/05 11:50:56;;;;;;;7.97;5.35;;;;;;;13.74;77.82;99011.38;5051682;28;20472;-79
2022/10/05 11:53:40;;;;;;;6.32;5.28;;;;;;;13.53;77.57;98986.38;5050935;28;20029;-79
2022/10/05 11:56:28;;;;;;;7.65;4.93;;;;;;;13.70;77.68;99002.25;5051361;28;20393;-79
2022/10/05 11:58:56;;;;;;;10.10;5.30;;;;;;;13.68;77.83;99000.91;5022565;28;20029;-79
2022/10/05 12:01:34;;;;;;;10.05;4.72;;;;;;;13.71;77.80;98992.34;5027982;28;20373;-79
2022/10/05 12:04:23;;;;;;;5.93;4.65;;;;;;;13.71;77.18;98982.41;5050872;28;20035;-79
2022/10/05 12:07:12;;;;;;;6.95;4.90;;;;;;;13.76;77.62;98987.00;5035038;28;20078;-79
2022/10/05 12:12:53;;;;;;;5.70;4.57;;;;;;;13.66;77.66;98965.50;5042770;28;20047;-79
2022/10/05 12:15:39;;;;;;;4.93;4.03;;;;;;;13.89;77.30;98998.00;5023550;28;20465;-79
2022/10/05 12:18:19;;;;;;;6.57;4.53;;;;;;;13.77;77.16;98978.66;5026617;28;20677;-79
2022/10/05 12:20:58;;;;;;;7.70;4.72;;;;;;;13.90;77.16;98993.44;5042807;28;20037;-79
2022/10/05 12:23:43;;;;;;;5.70;4.15;;;;;;;13.86;76.90;98965.53;5047158;28;20119;-79
2022/10/05 12:26:36;;;;;;;5.47;4.03;;;;;;;13.95;77.12;98985.41;5039927;28;20041;-79
2022/10/05 12:29:22;;;;;;;6.03;4.10;;;;;;;13.93;76.95;98971.44;5024573;28;20040;-79
2022/10/05 12:31:59;;;;;;;6.30;4.93;;;;;;;14.02;77.06;98976.00;5048354;28;20013;-79
2022/10/05 12:34:32;;;;;;;8.15;4.60;;;;;;;13.98;76.58;98955.34;5050723;28;20028;-79
2022/10/05 12:37:15;;;;;;;5.10;4.25;;;;;;;14.21;76.49;98962.88;5036060;28;20037;-79
2022/10/05 12:39:50;;;;;;;5.22;4.72;;;;;;;14.44;76.31;98972.31;5050959;28;20108;-79
2022/10/05 12:42:32;;;;;;;5.35;4.22;;;;;;;14.24;76.14;98943.56;5043238;28;21634;-79
2022/10/05 12:45:04;;;;;;;5.05;4.18;;;;;;;14.39;76.17;98962.38;5023224;28;20036;-79
2022/10/05 12:47:44;;;;;;;5.38;4.18;;;;;;;14.38;75.84;98960.75;5049849;28;20040;-80
2022/10/05 12:50:19;;;;;;;7.05;4.68;;;;;;;14.56;75.42;98954.00;5052543;28;20029;-79